createdAt,value
2019-04-14T00:00:42.787Z,98.60
2019-04-14T00:03:30.394Z,98.30
2019-04-14T00:06:04.708Z,98.70
2019-04-14T00:08:34.821Z,99.20
2019-04-14T00:11:04.036Z,99.90
2019-04-14T00:13:33.055Z,99.10
2019-04-14T00:16:03.054Z,98.20
2019-04-14T00:18:32.159Z,97.80
2019-04-14T00:21:02.181Z,97.70
2019-04-14T00:23:31.046Z,99.00
2019-04-14T00:26:24.779Z,98.80
2019-04-14T00:28:53.761Z,98.40
2019-04-14T00:31:23.798Z,99.10
2019-04-14T00:33:54.287Z,98.40
2019-04-14T00:36:37.302Z,98.70
2019-04-14T00:39:09.604Z,98.70
2019-04-14T00:41:59.085Z,98.30
2019-04-14T00:44:41.060Z,98.40
2019-04-14T00:47:11.645Z,98.60
2019-04-14T00:49:40.464Z,99.40
2019-04-14T00:52:10.027Z,99.20
2019-04-14T00:54:39.289Z,99.60
2019-04-14T00:57:09.339Z,99.30
2019-04-14T00:59:38.300Z,99.90
2019-04-14T01:02:07.747Z,99.90
2019-04-14T01:04:36.809Z,99.90
2019-04-14T01:07:06.544Z,99.90
2019-04-14T01:09:35.535Z,99.90
2019-04-14T01:12:04.608Z,99.90
2019-04-14T01:14:34.253Z,99.90
2019-04-14T01:17:03.317Z,99.90
2019-04-14T01:19:33.097Z,99.90
2019-04-14T01:22:03.105Z,99.90
2019-04-14T01:24:32.127Z,99.90
2019-04-14T01:27:01.709Z,99.90
2019-04-14T01:29:31.866Z,99.90
2019-04-14T01:32:02.230Z,99.90
2019-04-14T01:34:32.325Z,99.90
2019-04-14T01:37:01.288Z,99.90
2019-04-14T01:39:30.754Z,99.90
2019-04-14T01:42:00.690Z,99.90
2019-04-14T01:44:30.609Z,99.90
2019-04-14T01:47:00.879Z,99.90
2019-04-14T01:49:31.043Z,99.90
2019-04-14T01:52:08.184Z,99.70
2019-04-14T01:54:45.329Z,99.30
2019-04-14T01:57:34.977Z,99.60
2019-04-14T02:00:24.872Z,99.40
2019-04-14T02:02:53.950Z,98.70
2019-04-14T02:05:23.556Z,98.60
2019-04-14T02:07:53.671Z,98.20
2019-04-14T02:10:23.744Z,98.60
2019-04-14T02:12:54.104Z,98.50
2019-04-14T02:15:24.307Z,98.60
2019-04-14T02:17:54.497Z,98.20
2019-04-14T02:20:24.972Z,97.40
2019-04-14T02:22:55.230Z,97.50
2019-04-14T02:25:25.338Z,97.30
2019-04-14T02:27:54.275Z,97.40
2019-04-14T02:30:30.707Z,97.50
2019-04-14T02:33:24.066Z,97.40
2019-04-14T02:35:59.680Z,98.60
2019-04-14T02:38:43.557Z,96.60
2019-04-14T02:40:56.027Z,97.00
2019-04-14T02:43:31.686Z,95.60
2019-04-14T02:46:05.854Z,95.80
2019-04-14T02:50:55.541Z,96.50
2019-04-14T02:53:24.015Z,96.40
2019-04-14T02:55:59.519Z,95.80
2019-04-14T02:58:26.376Z,95.70
2019-04-14T03:00:58.497Z,96.30
2019-04-14T03:03:33.976Z,96.30
2019-04-14T03:05:57.861Z,96.50
2019-04-14T03:10:55.768Z,96.90
2019-04-14T03:13:29.294Z,97.10
2019-04-14T03:16:07.921Z,97.30
2019-04-14T03:18:39.415Z,97.30
2019-04-14T03:23:56.091Z,97.80
2019-04-14T03:26:25.321Z,98.40
2019-04-14T03:28:56.557Z,99.10
2019-04-14T03:37:18.532Z,99.30
2019-04-14T03:39:29.253Z,99.00
2019-04-14T03:44:03.286Z,99.20
2019-04-14T03:49:08.129Z,97.70
2019-04-14T03:51:44.587Z,98.00
2019-04-14T03:54:03.659Z,98.20
2019-04-14T03:56:17.708Z,98.90
2019-04-14T03:58:46.637Z,99.10
2019-04-14T04:01:15.467Z,98.60
2019-04-14T04:03:45.661Z,97.20
2019-04-14T04:06:15.920Z,97.10
2019-04-14T04:08:44.863Z,97.20
2019-04-14T04:11:15.010Z,97.50
2019-04-14T04:13:43.996Z,98.10
2019-04-14T04:16:14.396Z,98.00
2019-04-14T04:18:50.929Z,97.50
2019-04-14T04:21:16.249Z,96.70
2019-04-14T04:23:46.836Z,96.90
2019-04-14T04:26:34.369Z,96.30
2019-04-14T04:29:07.367Z,96.40
2019-04-14T04:31:37.874Z,97.30
2019-04-14T04:34:08.270Z,97.30
2019-04-14T04:36:44.736Z,98.40
2019-04-14T04:39:19.263Z,98.60
2019-04-14T04:41:49.323Z,99.10
2019-04-14T04:44:18.277Z,99.30
2019-04-14T04:46:48.299Z,98.80
2019-04-14T04:49:22.638Z,97.40
2019-04-14T04:51:48.653Z,97.00
2019-04-14T04:54:17.492Z,96.90
2019-04-14T04:56:47.251Z,97.10
2019-04-14T04:59:17.073Z,97.20
2019-04-14T05:01:47.251Z,97.60
2019-04-14T05:04:16.176Z,98.00
2019-04-14T05:07:03.394Z,97.80
2019-04-14T05:09:36.735Z,98.50
2019-04-14T05:12:26.248Z,98.70
2019-04-14T05:15:03.560Z,98.80
2019-04-14T05:17:37.052Z,99.00
2019-04-14T05:20:07.386Z,99.40
2019-04-14T05:22:37.471Z,97.60
2019-04-14T05:25:07.831Z,98.00
2019-04-14T05:27:36.821Z,98.60
2019-04-14T05:30:07.121Z,98.90
2019-04-14T05:32:36.926Z,99.10
2019-04-14T05:35:07.459Z,99.30
2019-04-14T05:37:36.395Z,99.00
2019-04-14T05:40:08.118Z,98.50
2019-04-14T05:42:37.302Z,98.40
2019-04-14T05:45:08.658Z,99.00
2019-04-14T05:47:37.719Z,98.70
2019-04-14T05:50:09.545Z,99.00
2019-04-14T05:52:38.549Z,98.40
2019-04-14T05:55:08.886Z,98.00
2019-04-14T05:57:37.690Z,97.40
2019-04-14T06:00:10.673Z,97.30
2019-04-14T06:02:40.029Z,97.80
2019-04-14T06:05:11.776Z,97.10
2019-04-14T06:07:41.155Z,97.70
2019-04-14T06:10:10.234Z,97.00
2019-04-14T06:12:39.045Z,97.20
2019-04-14T06:15:08.056Z,97.00
2019-04-14T06:17:37.066Z,97.10
2019-04-14T06:20:05.998Z,97.20
2019-04-14T06:22:34.790Z,96.70
2019-04-14T06:25:05.833Z,96.30
2019-04-14T06:27:35.540Z,96.10
2019-04-14T06:30:08.837Z,95.70
2019-04-14T06:32:39.233Z,95.70
2019-04-14T06:35:12.422Z,95.20
2019-04-14T06:38:00.981Z,95.10
2019-04-14T06:40:34.378Z,95.50
2019-04-14T06:43:03.317Z,94.70
2019-04-14T06:45:32.160Z,94.50
2019-04-14T06:48:00.967Z,95.30
2019-04-14T06:50:30.062Z,95.40
2019-04-14T06:52:58.883Z,95.90
2019-04-14T06:55:27.689Z,95.80
2019-04-14T06:57:56.594Z,95.80
2019-04-14T07:00:25.524Z,96.00
2019-04-14T07:02:54.428Z,95.20
2019-04-14T07:05:23.202Z,95.40
2019-04-14T07:07:57.149Z,95.10
2019-04-14T07:10:22.525Z,94.90
2019-04-14T07:12:51.313Z,94.60
2019-04-14T07:15:20.159Z,93.90
2019-04-14T07:17:48.995Z,93.80
2019-04-14T07:20:17.854Z,93.00
2019-04-14T07:22:46.718Z,93.70
2019-04-14T07:25:15.488Z,94.00
2019-04-14T07:27:44.293Z,94.10
2019-04-14T07:30:21.491Z,94.00
2019-04-14T07:32:54.923Z,94.30
2019-04-14T07:35:25.331Z,94.10
2019-04-14T07:37:55.717Z,94.20
2019-04-14T07:40:31.860Z,94.60
2019-04-14T07:43:10.557Z,94.10
2019-04-14T07:45:49.751Z,93.60
2019-04-14T07:48:23.112Z,93.30
2019-04-14T07:50:53.520Z,93.00
2019-04-14T07:53:23.898Z,93.00
2019-04-14T07:55:57.284Z,93.00
2019-04-14T07:58:27.678Z,93.00
2019-04-14T08:01:00.933Z,92.10
2019-04-14T08:03:32.812Z,92.20
2019-04-14T08:06:01.652Z,91.40
2019-04-14T08:08:30.603Z,92.30
2019-04-14T08:10:59.434Z,92.80
2019-04-14T08:13:28.235Z,92.20
2019-04-14T08:15:57.062Z,92.60
2019-04-14T08:18:25.963Z,92.80
2019-04-14T08:20:54.788Z,92.80
2019-04-14T08:23:24.791Z,93.40
2019-04-14T08:25:53.652Z,93.00
2019-04-14T08:28:22.473Z,93.50
2019-04-14T08:30:51.341Z,94.10
2019-04-14T08:33:20.362Z,94.20
2019-04-14T08:35:49.127Z,94.20
2019-04-14T08:38:18.113Z,93.70
2019-04-14T08:40:48.540Z,93.90
2019-04-14T08:43:35.511Z,93.70
2019-04-14T08:46:14.705Z,94.40
2019-04-14T08:48:54.218Z,93.90
2019-04-14T08:51:27.766Z,93.80
2019-04-14T08:54:08.623Z,93.80
2019-04-14T08:56:55.425Z,94.10
2019-04-14T08:59:44.162Z,94.50
2019-04-14T09:02:17.377Z,94.90
2019-04-14T09:04:56.464Z,94.80
2019-04-14T09:07:26.932Z,94.80
2019-04-14T09:10:12.739Z,94.60
2019-04-14T09:12:46.192Z,94.50
2019-04-14T09:15:15.143Z,94.30
2019-04-14T09:17:44.314Z,94.20
2019-04-14T09:20:13.299Z,95.30
2019-04-14T09:22:42.297Z,93.80
2019-04-14T09:25:12.060Z,93.10
2019-04-14T09:27:40.990Z,93.00
2019-04-14T09:30:16.604Z,93.50
2019-04-14T09:32:45.508Z,94.00
2019-04-14T09:35:14.545Z,93.70
2019-04-14T09:37:43.379Z,93.40
2019-04-14T09:40:13.756Z,93.60
2019-04-14T09:42:42.611Z,93.90
2019-04-14T09:45:11.482Z,93.90
2019-04-14T09:47:40.834Z,93.80
2019-04-14T09:50:09.934Z,94.70
2019-04-14T09:52:38.767Z,94.00
2019-04-14T09:55:07.685Z,94.10
2019-04-14T09:57:36.572Z,94.80
2019-04-14T10:00:24.710Z,94.30
2019-04-14T10:02:53.541Z,94.60
2019-04-14T10:05:22.597Z,94.00
2019-04-14T10:07:52.358Z,93.30
2019-04-14T10:10:21.311Z,94.00
2019-04-14T10:12:50.125Z,94.30
2019-04-14T10:15:18.980Z,94.30
2019-04-14T10:17:49.939Z,95.10
2019-04-14T10:20:18.685Z,95.40
2019-04-14T10:22:47.748Z,95.30
2019-04-14T10:25:16.531Z,95.30
2019-04-14T10:27:45.631Z,95.50
2019-04-14T10:30:14.785Z,95.10
2019-04-14T10:32:43.612Z,95.10
2019-04-14T10:35:12.434Z,95.70
2019-04-14T10:37:41.395Z,95.50
2019-04-14T10:40:14.446Z,95.50
2019-04-14T10:42:43.241Z,95.10
2019-04-14T10:45:12.055Z,95.60
2019-04-14T10:47:41.060Z,95.30
2019-04-14T10:50:09.909Z,95.60
2019-04-14T10:52:38.872Z,95.60
2019-04-14T10:55:07.949Z,95.70
2019-04-14T10:57:36.971Z,95.40
2019-04-14T11:00:08.793Z,94.80
2019-04-14T11:02:39.185Z,94.30
2019-04-14T11:05:08.274Z,94.60
2019-04-14T11:07:42.649Z,94.50
2019-04-14T11:10:11.890Z,93.80
2019-04-14T11:12:40.700Z,92.80
2019-04-14T11:15:10.519Z,92.90
2019-04-14T11:17:39.326Z,92.70
2019-04-14T11:20:08.657Z,92.80
2019-04-14T11:22:37.611Z,93.10
2019-04-14T11:25:06.931Z,92.80
2019-04-14T11:27:35.757Z,93.90
2019-04-14T11:30:08.413Z,93.60
2019-04-14T11:32:44.708Z,92.70
2019-04-14T11:35:21.287Z,92.20
2019-04-14T11:37:51.720Z,92.50
2019-04-14T11:40:25.050Z,91.50
2019-04-14T11:42:54.035Z,90.70
2019-04-14T11:45:22.807Z,90.70
2019-04-14T11:47:51.627Z,90.60
2019-04-14T11:50:21.014Z,91.30
2019-04-14T11:52:49.990Z,91.10
2019-04-14T11:55:18.887Z,91.20
2019-04-14T11:57:47.899Z,92.20
2019-04-14T12:00:24.451Z,92.40
2019-04-14T12:03:04.058Z,92.50
2019-04-14T12:05:34.515Z,92.30
2019-04-14T12:08:08.277Z,92.80
2019-04-14T12:10:37.083Z,92.90
2019-04-14T12:13:05.985Z,92.60
2019-04-14T12:15:34.846Z,92.10
2019-04-14T12:18:03.910Z,91.80
2019-04-14T12:20:32.748Z,91.90
2019-04-14T12:23:01.813Z,92.10
2019-04-14T12:25:30.627Z,92.20
2019-04-14T12:28:00.354Z,92.60
2019-04-14T12:30:31.231Z,92.80
2019-04-14T12:33:00.169Z,92.50
2019-04-14T12:35:29.002Z,92.90
2019-04-14T12:37:57.857Z,92.20
2019-04-14T12:40:26.887Z,92.00
2019-04-14T12:42:57.297Z,92.20
2019-04-14T12:45:45.872Z,92.20
2019-04-14T12:48:16.376Z,92.40
2019-04-14T12:50:55.951Z,92.20
2019-04-14T12:53:24.788Z,92.00
2019-04-14T12:55:53.614Z,91.90
2019-04-14T12:58:40.379Z,91.70
2019-04-14T13:01:13.652Z,91.70
2019-04-14T13:03:42.459Z,92.60
2019-04-14T13:06:11.414Z,93.20
2019-04-14T13:08:40.226Z,94.10
2019-04-14T13:11:09.199Z,93.40
2019-04-14T13:13:38.256Z,94.20
2019-04-14T13:16:08.278Z,94.20
2019-04-14T13:18:37.211Z,95.10
2019-04-14T13:21:06.320Z,95.00
2019-04-14T13:23:35.979Z,94.80
2019-04-14T13:26:07.007Z,95.00
2019-04-14T13:28:35.832Z,94.90
2019-04-14T13:31:04.664Z,95.30
2019-04-14T13:33:33.535Z,95.00
2019-04-14T13:36:02.420Z,94.80
2019-04-14T13:38:31.304Z,95.20
2019-04-14T13:41:00.092Z,95.50
2019-04-14T13:43:29.125Z,95.60
2019-04-14T13:45:59.888Z,96.10
2019-04-14T13:48:28.615Z,96.60
2019-04-14T13:50:57.471Z,96.90
2019-04-14T13:53:26.436Z,97.60
2019-04-14T13:55:55.266Z,97.60
2019-04-14T13:58:24.284Z,96.30
2019-04-14T14:00:53.391Z,96.50
2019-04-14T14:03:22.222Z,97.20
2019-04-14T14:05:51.085Z,95.70
2019-04-14T14:08:19.883Z,95.80
2019-04-14T14:10:48.732Z,96.40
2019-04-14T14:13:22.101Z,97.10
2019-04-14T14:16:08.898Z,96.50
2019-04-14T14:18:39.467Z,96.60
2019-04-14T14:21:19.082Z,97.30
2019-04-14T14:23:55.332Z,97.20
2019-04-14T14:26:28.662Z,97.60
2019-04-14T14:28:57.645Z,97.80
2019-04-14T14:31:26.494Z,98.10
2019-04-14T14:33:55.549Z,98.40
2019-04-14T14:36:24.380Z,98.10
2019-04-14T14:38:53.331Z,98.20
2019-04-14T14:41:22.178Z,98.40
2019-04-14T14:43:50.999Z,99.10
2019-04-14T14:46:27.447Z,98.60
2019-04-14T14:49:16.279Z,98.00
2019-04-14T14:51:46.718Z,97.90
2019-04-14T14:54:15.857Z,97.80
2019-04-14T14:56:44.689Z,97.30
2019-04-14T14:59:13.548Z,97.00
2019-04-14T15:01:42.471Z,97.70
2019-04-14T15:04:11.503Z,97.70
2019-04-14T15:06:40.393Z,97.20
2019-04-14T15:09:09.202Z,97.70
2019-04-14T15:11:38.474Z,97.80
2019-04-14T15:14:07.717Z,97.00
2019-04-14T15:16:36.731Z,97.10
2019-04-14T15:19:05.701Z,96.80
2019-04-14T15:21:34.671Z,96.50
2019-04-14T15:24:04.349Z,96.20
2019-04-14T15:26:33.188Z,95.40
2019-04-14T15:29:02.082Z,92.50
2019-04-14T15:31:30.863Z,91.50
2019-04-14T15:33:59.762Z,91.90
2019-04-14T15:36:28.753Z,91.70
2019-04-14T15:38:57.606Z,92.60
2019-04-14T15:41:26.658Z,92.70
2019-04-14T15:43:55.635Z,92.50
2019-04-14T15:46:24.442Z,92.50
2019-04-14T15:48:53.238Z,91.30
2019-04-14T15:51:22.079Z,91.40
2019-04-14T15:53:50.892Z,91.00
2019-04-14T15:56:33.349Z,91.30
2019-04-14T15:59:03.674Z,91.50
2019-04-14T16:01:36.743Z,92.10
2019-04-14T16:04:07.155Z,91.40
2019-04-14T16:06:40.448Z,90.80
2019-04-14T16:09:14.567Z,90.50
2019-04-14T16:11:45.212Z,90.90
2019-04-14T16:14:31.824Z,91.20
2019-04-14T16:17:19.125Z,90.90
2019-04-14T16:20:01.715Z,91.20
2019-04-14T16:22:30.526Z,91.50
2019-04-14T16:24:59.338Z,91.90
2019-04-14T16:27:32.928Z,91.40
2019-04-14T16:30:03.657Z,91.80
2019-04-14T16:32:46.163Z,92.10
2019-04-14T16:35:16.693Z,92.60
2019-04-14T16:37:45.728Z,91.70
2019-04-14T16:40:16.169Z,91.70
2019-04-14T16:42:45.101Z,91.80
2019-04-14T16:45:14.406Z,91.30
2019-04-14T16:47:43.246Z,91.40
2019-04-14T16:50:12.056Z,91.10
2019-04-14T16:52:48.490Z,90.80
2019-04-14T16:55:18.968Z,90.90
2019-04-14T16:57:52.184Z,91.10
2019-04-14T17:00:22.681Z,90.90
2019-04-14T17:02:51.489Z,90.10
2019-04-14T17:05:20.381Z,84.60
2019-04-14T17:07:49.328Z,85.50
2019-04-14T17:10:19.066Z,83.10
2019-04-14T17:12:48.051Z,84.60
2019-04-14T17:15:21.377Z,85.30
2019-04-14T17:18:08.090Z,85.70
2019-04-14T17:20:41.154Z,87.20
2019-04-14T17:23:17.457Z,87.20
2019-04-14T17:25:50.933Z,86.30
2019-04-14T17:28:37.955Z,86.60
2019-04-14T17:31:08.506Z,87.00
2019-04-14T17:33:41.634Z,87.80
2019-04-14T17:36:12.134Z,88.60
2019-04-14T17:38:42.623Z,88.70
2019-04-14T17:41:13.048Z,88.10
2019-04-14T17:43:49.488Z,89.00
2019-04-14T17:46:22.617Z,90.30
2019-04-14T17:49:04.999Z,89.80
2019-04-14T17:51:53.588Z,89.50
2019-04-14T17:54:29.734Z,89.40
2019-04-14T17:57:01.792Z,89.70
2019-04-14T17:59:32.352Z,90.10
2019-04-14T18:02:15.040Z,90.10
2019-04-14T18:04:54.753Z,90.40
2019-04-14T18:07:28.666Z,89.80
2019-04-14T18:09:59.061Z,90.20
2019-04-14T18:12:29.444Z,90.50
2019-04-14T18:15:18.408Z,90.70
2019-04-14T18:18:05.348Z,91.10
2019-04-14T18:20:38.489Z,91.10
2019-04-14T18:23:07.314Z,91.50
2019-04-14T18:25:36.138Z,92.40
2019-04-14T18:28:06.530Z,93.00
2019-04-14T18:30:36.935Z,93.60
2019-04-14T18:33:25.809Z,94.50
2019-04-14T18:35:56.524Z,94.70
2019-04-14T18:38:26.914Z,95.00
2019-04-14T18:41:00.057Z,95.90
2019-04-14T18:43:46.634Z,95.40
2019-04-14T18:46:32.753Z,95.90
2019-04-14T18:49:05.844Z,96.40
2019-04-14T18:51:48.256Z,95.60
2019-04-14T18:54:28.044Z,95.90
2019-04-14T18:56:58.450Z,95.50
2019-04-14T18:59:44.180Z,95.50
2019-04-14T19:02:13.003Z,96.90
2019-04-14T19:04:41.887Z,95.50
2019-04-14T19:07:10.776Z,95.30
2019-04-14T19:09:39.676Z,96.30
2019-04-14T19:12:20.137Z,96.80
2019-04-14T19:14:50.532Z,97.00
2019-04-14T19:17:33.226Z,98.50
2019-04-14T19:20:02.615Z,99.90
2019-04-14T19:22:31.996Z,99.30
2019-04-14T19:25:07.863Z,99.30
2019-04-14T19:27:32.014Z,99.80
2019-04-14T19:30:00.882Z,99.90
2019-04-14T19:32:29.817Z,99.60
2019-04-14T19:34:58.657Z,99.40
2019-04-14T19:37:27.483Z,99.50
2019-04-14T19:39:56.406Z,98.70
2019-04-14T19:42:25.358Z,99.90
2019-04-14T19:44:54.395Z,99.50
2019-04-14T19:47:23.335Z,99.90
2019-04-14T19:49:52.156Z,99.90
2019-04-14T19:52:20.992Z,99.90
2019-04-14T19:54:49.855Z,99.90
2019-04-14T19:57:18.806Z,99.90
2019-04-14T19:59:47.658Z,99.90
2019-04-14T20:02:16.509Z,99.90
2019-04-14T20:04:46.314Z,99.90
2019-04-14T20:07:15.130Z,99.90
2019-04-14T20:09:43.987Z,99.90
2019-04-14T20:12:13.462Z,99.90
2019-04-14T20:14:42.341Z,99.90
2019-04-14T20:17:27.733Z,99.90
2019-04-14T20:20:01.151Z,99.90
2019-04-14T20:22:43.361Z,99.90
2019-04-14T20:25:13.895Z,99.90
2019-04-14T20:27:56.311Z,99.90
2019-04-14T20:30:42.791Z,99.90
2019-04-14T20:33:12.217Z,99.90
2019-04-14T20:35:41.038Z,99.90
2019-04-14T20:38:09.903Z,99.90
2019-04-14T20:40:38.887Z,99.90
2019-04-14T20:43:07.791Z,99.90
2019-04-14T20:45:38.414Z,99.90
2019-04-14T20:48:07.358Z,99.90
2019-04-14T20:50:36.177Z,99.90
2019-04-14T20:53:05.065Z,99.90
2019-04-14T20:55:45.960Z,99.90
2019-04-14T20:58:04.574Z,99.90
2019-04-14T21:00:33.469Z,99.90
2019-04-14T21:05:59.078Z,99.90
2019-04-14T21:08:46.152Z,99.90
2019-04-14T21:11:16.763Z,99.90
2019-04-14T21:14:03.901Z,99.90
2019-04-14T21:16:34.436Z,99.90
2019-04-14T21:19:10.898Z,99.90
2019-04-14T21:21:57.821Z,99.90
2019-04-14T21:24:34.041Z,99.90
2019-04-14T21:27:07.443Z,99.90
2019-04-14T21:29:40.762Z,99.90
2019-04-14T21:32:13.817Z,99.90
2019-04-14T21:34:50.223Z,99.90
2019-04-14T21:37:35.681Z,99.90
2019-04-14T21:40:15.429Z,99.90
2019-04-14T21:42:44.816Z,99.90
2019-04-14T21:45:14.019Z,99.90
2019-04-14T21:47:57.476Z,99.90
2019-04-14T21:50:29.356Z,99.90
2019-04-14T21:52:59.290Z,99.90
2019-04-14T21:55:30.017Z,99.90
2019-04-14T21:58:03.969Z,99.90
2019-04-14T22:01:13.822Z,99.90
2019-04-14T22:04:00.476Z,99.90
2019-04-14T22:06:36.026Z,99.90
2019-04-14T22:09:08.459Z,99.90
2019-04-14T22:11:42.128Z,99.90
2019-04-14T22:14:13.238Z,99.90
2019-04-14T22:16:42.169Z,99.90
2019-04-14T22:19:11.054Z,99.90
2019-04-14T22:21:39.874Z,99.90
2019-04-14T22:24:08.730Z,99.90
2019-04-14T22:26:37.589Z,99.90
2019-04-14T22:29:06.490Z,99.90
2019-04-14T22:31:35.337Z,99.90
2019-04-14T22:34:04.326Z,99.90
2019-04-14T22:36:33.151Z,99.90
2019-04-14T22:39:01.982Z,99.90
2019-04-14T22:41:30.897Z,99.90
2019-04-14T22:43:59.727Z,99.90
2019-04-14T22:46:28.570Z,99.90
2019-04-14T22:48:57.439Z,99.90
2019-04-14T22:51:26.504Z,99.90
2019-04-14T22:53:55.392Z,99.90
2019-04-14T22:56:24.220Z,99.90
2019-04-14T22:58:53.022Z,99.90
2019-04-14T23:01:23.456Z,99.90
2019-04-14T23:03:56.646Z,99.90
2019-04-14T23:06:44.622Z,99.90
2019-04-14T23:09:24.317Z,99.90
2019-04-14T23:12:12.905Z,99.90
2019-04-14T23:14:43.341Z,99.90
2019-04-14T23:17:13.711Z,99.90
2019-04-14T23:19:47.256Z,99.90
2019-04-14T23:22:29.895Z,99.90
2019-04-14T23:24:58.774Z,99.90
2019-04-14T23:27:27.622Z,99.90
2019-04-14T23:29:56.433Z,99.90
2019-04-14T23:32:25.261Z,99.90
2019-04-14T23:34:54.192Z,99.90
2019-04-14T23:37:23.023Z,99.90
2019-04-14T23:39:51.819Z,99.90
2019-04-14T23:42:20.718Z,99.90
2019-04-14T23:44:49.473Z,99.90
2019-04-14T23:47:18.295Z,99.90
2019-04-14T23:49:47.142Z,99.90
2019-04-14T23:52:16.047Z,99.90
2019-04-14T23:54:44.964Z,99.90
2019-04-14T23:57:13.806Z,99.90
2019-04-14T23:59:42.773Z,99.90
